createdAt,value
2018-03-15T00:03:26.723Z,93895.22
2018-03-15T00:05:54.999Z,93887.13
2018-03-15T00:08:23.348Z,93884.42
2018-03-15T00:10:51.609Z,93890.48
2018-03-15T00:13:20.639Z,93878.68
2018-03-15T00:15:50.752Z,93875.20
2018-03-15T00:18:19.025Z,93874.85
2018-03-15T00:20:48.047Z,93873.36
2018-03-15T00:23:16.307Z,93869.45
2018-03-15T00:25:45.340Z,93860.22
2018-03-15T00:28:13.607Z,93849.92
2018-03-15T00:30:41.863Z,93839.64
2018-03-15T00:33:10.148Z,93835.56
2018-03-15T00:35:38.403Z,93833.20
2018-03-15T00:38:06.656Z,93831.36
2018-03-15T00:40:34.924Z,93836.16
2018-03-15T00:43:03.182Z,93830.93
2018-03-15T00:45:31.447Z,93826.54
2018-03-15T00:47:59.700Z,93821.11
2018-03-15T00:50:27.972Z,93809.05
2018-03-15T00:52:56.232Z,93808.11
2018-03-15T00:55:24.498Z,93798.23
2018-03-15T00:57:52.759Z,93793.27
2018-03-15T01:00:21.020Z,93789.03
2018-03-15T01:02:51.305Z,93783.77
2018-03-15T01:05:19.577Z,93785.11
2018-03-15T01:07:47.835Z,93778.05
2018-03-15T01:10:16.088Z,93778.38
2018-03-15T01:12:45.124Z,93774.74
2018-03-15T01:15:13.385Z,93774.73
2018-03-15T01:17:41.644Z,93770.74
2018-03-15T01:20:10.783Z,93768.23
2018-03-15T01:22:39.032Z,93769.66
2018-03-15T01:25:07.303Z,93764.98
2018-03-15T01:27:36.325Z,93759.56
2018-03-15T01:30:05.132Z,93759.77
2018-03-15T01:32:33.404Z,93751.09
2018-03-15T01:35:01.670Z,93743.09
2018-03-15T01:37:29.924Z,93744.88
2018-03-15T01:39:58.960Z,93747.04
2018-03-15T01:42:27.209Z,93747.55
2018-03-15T01:44:56.228Z,93747.42
2018-03-15T01:47:24.504Z,93739.16
2018-03-15T01:49:52.756Z,93738.36
2018-03-15T01:52:21.008Z,93742.89
2018-03-15T01:54:49.279Z,93744.80
2018-03-15T01:57:17.539Z,93743.63
2018-03-15T01:59:45.836Z,93740.53
2018-03-15T02:02:14.076Z,93736.27
2018-03-15T02:04:43.099Z,93730.51
2018-03-15T02:07:11.399Z,93730.09
2018-03-15T02:09:40.362Z,93723.46
2018-03-15T02:12:09.389Z,93727.44
2018-03-15T02:14:37.644Z,93732.47
2018-03-15T02:17:05.896Z,93735.63
2018-03-15T02:19:34.149Z,93721.66
2018-03-15T02:22:02.802Z,93727.25
2018-03-15T02:24:31.045Z,93724.81
2018-03-15T02:26:59.304Z,93722.81
2018-03-15T02:29:27.624Z,93723.16
2018-03-15T02:31:56.268Z,93721.89
2018-03-15T02:34:24.529Z,93723.63
2018-03-15T02:36:52.795Z,93723.85
2018-03-15T02:39:21.062Z,93725.17
2018-03-15T02:41:49.325Z,93710.20
2018-03-15T02:44:18.360Z,93706.23
2018-03-15T02:46:46.612Z,93708.80
2018-03-15T02:49:15.652Z,93703.38
2018-03-15T02:51:43.909Z,93703.54
2018-03-15T02:54:12.180Z,93697.58
2018-03-15T02:56:40.444Z,93698.05
2018-03-15T02:59:09.471Z,93691.73
2018-03-15T03:01:37.740Z,93694.12
2018-03-15T03:04:06.008Z,93690.80
2018-03-15T03:06:35.036Z,93692.63
2018-03-15T03:09:03.284Z,93688.64
2018-03-15T03:11:32.316Z,93687.60
2018-03-15T03:14:00.577Z,93687.94
2018-03-15T03:16:29.597Z,93690.78
2018-03-15T03:18:57.852Z,93687.25
2018-03-15T03:21:26.111Z,93686.11
2018-03-15T03:23:55.143Z,93681.73
2018-03-15T03:26:23.400Z,93675.75
2018-03-15T03:28:53.671Z,93671.53
2018-03-15T03:31:21.944Z,93673.91
2018-03-15T03:33:50.212Z,93667.97
2018-03-15T03:36:18.478Z,93659.76
2018-03-15T03:38:47.503Z,93654.59
2018-03-15T03:41:15.770Z,93654.06
2018-03-15T03:43:44.021Z,93659.02
2018-03-15T03:46:13.048Z,93652.03
2018-03-15T03:48:41.308Z,93649.88
2018-03-15T03:51:10.340Z,93661.70
2018-03-15T03:53:38.600Z,93653.73
2018-03-15T03:56:07.091Z,93650.60
2018-03-15T03:58:35.369Z,93656.03
2018-03-15T04:01:03.624Z,93645.20
2018-03-15T04:03:32.650Z,93645.11
2018-03-15T04:06:02.165Z,93654.05
2018-03-15T04:08:30.423Z,93655.05
2018-03-15T04:10:59.482Z,93661.42
2018-03-15T04:13:27.737Z,93669.19
2018-03-15T04:15:55.987Z,93658.34
2018-03-15T04:18:24.288Z,93668.55
2018-03-15T04:20:52.539Z,93669.69
2018-03-15T04:23:20.803Z,93679.20
2018-03-15T04:25:49.080Z,93675.20
2018-03-15T04:28:17.325Z,93672.13
2018-03-15T04:30:45.580Z,93673.14
2018-03-15T04:33:13.849Z,93661.77
2018-03-15T04:35:42.135Z,93658.54
2018-03-15T04:38:10.373Z,93657.20
2018-03-15T04:40:38.628Z,93656.02
2018-03-15T04:43:06.908Z,93655.72
2018-03-15T04:45:35.165Z,93650.78
2018-03-15T04:48:03.436Z,93650.59
2018-03-15T04:50:31.688Z,93652.27
2018-03-15T04:53:00.716Z,93657.11
2018-03-15T04:55:28.989Z,93656.48
2018-03-15T04:57:57.242Z,93659.63
2018-03-15T05:00:25.508Z,93659.47
2018-03-15T05:02:53.780Z,93650.01
2018-03-15T05:05:22.028Z,93644.77
2018-03-15T05:07:50.287Z,93643.24
2018-03-15T05:10:18.568Z,93642.37
2018-03-15T05:12:47.590Z,93652.02
2018-03-15T05:15:15.887Z,93643.63
2018-03-15T05:17:44.163Z,93633.95
2018-03-15T05:20:12.422Z,93633.91
2018-03-15T05:22:40.677Z,93632.03
2018-03-15T05:25:09.732Z,93631.56
2018-03-15T05:27:37.976Z,93619.86
2018-03-15T05:30:06.236Z,93604.46
2018-03-15T05:32:35.463Z,93611.20
2018-03-15T05:35:03.717Z,93610.61
2018-03-15T05:37:32.751Z,93609.14
2018-03-15T05:40:01.028Z,93599.91
2018-03-15T05:42:29.322Z,93594.22
2018-03-15T05:44:57.580Z,93594.33
2018-03-15T05:47:25.872Z,93586.89
2018-03-15T05:49:54.124Z,93579.60
2018-03-15T05:52:23.145Z,93576.17
2018-03-15T05:54:51.407Z,93573.39
2018-03-15T05:57:19.720Z,93573.55
2018-03-15T05:59:47.973Z,93569.41
2018-03-15T06:02:16.238Z,93562.36
2018-03-15T06:04:45.272Z,93560.55
2018-03-15T06:07:13.533Z,93559.91
2018-03-15T06:09:41.781Z,93549.34
2018-03-15T06:12:10.054Z,93560.62
2018-03-15T06:14:38.309Z,93558.61
2018-03-15T06:17:06.584Z,93547.00
2018-03-15T06:19:34.840Z,93549.41
2018-03-15T06:22:03.084Z,93541.16
2018-03-15T06:24:31.360Z,93544.38
2018-03-15T06:26:59.626Z,93538.09
2018-03-15T06:29:27.880Z,93532.64
2018-03-15T06:31:56.153Z,93529.05
2018-03-15T06:34:24.400Z,93522.52
2018-03-15T06:36:53.416Z,93508.84
2018-03-15T06:39:21.698Z,93505.41
2018-03-15T06:41:49.944Z,93511.32
2018-03-15T06:44:18.189Z,93505.56
2018-03-15T06:46:46.451Z,93506.00
2018-03-15T06:49:14.724Z,93501.66
2018-03-15T06:51:44.215Z,93502.20
2018-03-15T06:54:13.261Z,93505.67
2018-03-15T06:56:41.491Z,93493.35
2018-03-15T06:59:10.512Z,93485.13
2018-03-15T07:01:38.764Z,93470.39
2018-03-15T07:04:07.782Z,93477.55
2018-03-15T07:06:36.037Z,93481.84
2018-03-15T07:09:05.052Z,93490.55
2018-03-15T07:11:33.309Z,93474.42
2018-03-15T07:14:02.328Z,93475.91
2018-03-15T07:16:30.576Z,93468.30
2018-03-15T07:18:58.831Z,93472.84
2018-03-15T07:21:27.086Z,93469.42
2018-03-15T07:23:55.337Z,93474.17
2018-03-15T07:26:24.357Z,93481.86
2018-03-15T07:28:52.604Z,93477.17
2018-03-15T07:31:21.638Z,93470.66
2018-03-15T07:33:49.879Z,93465.59
2018-03-15T07:36:18.124Z,93465.86
2018-03-15T07:38:46.379Z,93462.46
2018-03-15T07:41:14.643Z,93456.43
2018-03-15T07:43:43.664Z,93464.38
2018-03-15T07:46:11.916Z,93464.39
2018-03-15T07:48:40.940Z,93468.49
2018-03-15T07:51:09.196Z,93468.03
2018-03-15T07:53:38.203Z,93467.20
2018-03-15T07:56:06.457Z,93464.91
2018-03-15T07:58:35.468Z,93462.39
2018-03-15T08:01:04.491Z,93457.01
2018-03-15T08:03:32.732Z,93455.25
2018-03-15T08:06:01.744Z,93445.35
2018-03-15T08:08:30.768Z,93447.06
2018-03-15T08:10:59.011Z,93442.12
2018-03-15T08:13:28.021Z,93440.73
2018-03-15T08:15:57.037Z,93448.47
2018-03-15T08:18:25.276Z,93451.92
2018-03-15T08:20:53.509Z,93447.75
2018-03-15T08:23:21.755Z,93449.96
2018-03-15T08:25:50.764Z,93446.57
2018-03-15T08:28:19.020Z,93443.50
2018-03-15T08:30:48.068Z,93444.87
2018-03-15T08:33:16.327Z,93445.09
2018-03-15T08:35:44.568Z,93443.19
2018-03-15T08:38:12.837Z,93440.03
2018-03-15T08:40:41.078Z,93436.63
2018-03-15T08:43:09.326Z,93430.97
2018-03-15T08:45:39.591Z,93426.78
2018-03-15T08:48:07.832Z,93426.34
2018-03-15T08:50:36.847Z,93418.69
2018-03-15T08:53:05.100Z,93419.94
2018-03-15T08:55:34.124Z,93420.72
2018-03-15T08:58:02.363Z,93415.77
2018-03-15T09:00:30.624Z,93408.61
2018-03-15T09:03:00.700Z,93399.56
2018-03-15T09:05:29.716Z,93392.08
2018-03-15T09:07:57.981Z,93385.87
2018-03-15T09:10:26.984Z,93383.17
2018-03-15T09:12:55.238Z,93385.47
2018-03-15T09:15:24.262Z,93387.03
2018-03-15T09:17:52.509Z,93385.14
2018-03-15T09:20:20.748Z,93365.71
2018-03-15T09:22:49.007Z,93358.19
2018-03-15T09:25:17.254Z,93359.73
2018-03-15T09:27:45.487Z,93358.14
2018-03-15T09:30:13.752Z,93357.39
2018-03-15T09:32:42.009Z,93348.42
2018-03-15T09:35:10.272Z,93345.06
2018-03-15T09:37:38.512Z,93343.58
2018-03-15T09:40:06.764Z,93338.52
2018-03-15T09:42:35.004Z,93334.84
2018-03-15T09:45:03.378Z,93339.95
2018-03-15T09:47:31.615Z,93332.39
2018-03-15T09:49:59.860Z,93336.75
2018-03-15T09:52:28.882Z,93333.26
2018-03-15T09:54:57.148Z,93332.59
2018-03-15T09:57:26.162Z,93322.72
2018-03-15T09:59:54.428Z,93315.42
2018-03-15T10:02:23.435Z,93313.69
2018-03-15T10:04:51.681Z,93309.05
2018-03-15T10:07:19.939Z,93305.86
2018-03-15T10:09:48.213Z,93300.92
2018-03-15T10:12:16.456Z,93301.02
2018-03-15T10:14:44.701Z,93300.17
2018-03-15T10:17:12.969Z,93291.02
2018-03-15T10:19:41.204Z,93282.55
2018-03-15T10:22:09.535Z,93289.77
2018-03-15T10:24:38.488Z,93290.95
2018-03-15T10:27:06.732Z,93287.81
2018-03-15T10:29:35.764Z,93281.27
2018-03-15T10:32:04.012Z,93277.34
2018-03-15T10:34:33.038Z,93276.23
2018-03-15T10:37:02.137Z,93269.56
2018-03-15T10:39:30.386Z,93261.25
2018-03-15T10:41:59.414Z,93263.95
2018-03-15T10:44:27.684Z,93259.42
2018-03-15T10:46:55.928Z,93252.84
2018-03-15T10:49:24.190Z,93254.09
2018-03-15T10:51:52.811Z,93249.36
2018-03-15T10:54:21.826Z,93244.64
2018-03-15T10:56:50.086Z,93242.59
2018-03-15T10:59:18.352Z,93235.21
2018-03-15T11:01:52.117Z,93239.07
2018-03-15T11:07:28.217Z,93238.84
2018-03-15T11:09:56.740Z,93249.26
2018-03-15T11:12:24.995Z,93243.62
2018-03-15T11:14:53.242Z,93246.38
2018-03-15T11:17:21.512Z,93244.23
2018-03-15T11:19:49.764Z,93246.87
2018-03-15T11:22:18.770Z,93244.57
2018-03-15T11:24:47.243Z,93228.75
2018-03-15T11:27:16.257Z,93228.79
2018-03-15T11:29:44.511Z,93229.44
2018-03-15T11:32:13.541Z,93223.94
2018-03-15T11:34:41.792Z,93226.75
2018-03-15T11:37:10.803Z,93215.66
2018-03-15T11:39:39.648Z,93213.93
2018-03-15T11:42:07.896Z,93200.96
2018-03-15T11:44:36.141Z,93196.06
2018-03-15T11:47:05.164Z,93191.58
2018-03-15T11:49:33.428Z,93187.45
2018-03-15T11:52:02.444Z,93180.19
2018-03-15T11:54:30.703Z,93182.22
2018-03-15T11:56:59.724Z,93170.86
2018-03-15T11:59:27.988Z,93171.94
2018-03-15T12:01:56.251Z,93167.70
2018-03-15T12:04:25.280Z,93160.50
2018-03-15T12:06:53.541Z,93155.87
2018-03-15T12:09:22.553Z,93146.48
2018-03-15T12:11:50.932Z,93147.84
2018-03-15T12:14:19.180Z,93148.13
2018-03-15T12:16:47.468Z,93155.97
2018-03-15T12:19:16.484Z,93151.69
2018-03-15T12:21:44.737Z,93144.30
2018-03-15T12:24:13.001Z,93146.77
2018-03-15T12:26:41.247Z,93131.48
2018-03-15T12:29:09.504Z,93133.24
2018-03-15T12:31:37.769Z,93126.84
2018-03-15T12:34:06.780Z,93113.84
2018-03-15T12:36:35.805Z,93113.19
2018-03-15T12:39:04.059Z,93111.06
2018-03-15T12:41:32.324Z,93104.55
2018-03-15T12:44:01.340Z,93102.14
2018-03-15T12:46:29.616Z,93103.75
2018-03-15T12:48:58.625Z,93095.42
2018-03-15T12:51:26.868Z,93089.81
2018-03-15T12:53:55.142Z,93091.50
2018-03-15T12:56:23.390Z,93090.41
2018-03-15T12:58:51.632Z,93082.19
2018-03-15T13:01:20.664Z,93078.41
2018-03-15T13:03:48.932Z,93080.78
2018-03-15T13:06:17.175Z,93074.08
2018-03-15T13:08:46.208Z,93066.05
2018-03-15T13:11:14.457Z,93075.00
2018-03-15T13:13:43.464Z,93070.80
2018-03-15T13:16:12.487Z,93067.42
2018-03-15T13:18:40.736Z,93061.83
2018-03-15T13:21:09.748Z,93056.49
2018-03-15T13:23:39.593Z,93048.09
2018-03-15T13:26:07.840Z,93056.49
2018-03-15T13:28:36.092Z,93053.91
2018-03-15T13:31:04.868Z,93057.09
2018-03-15T13:33:33.134Z,93058.55
2018-03-15T13:36:01.382Z,93049.48
2018-03-15T13:38:29.642Z,93041.90
2018-03-15T13:40:58.668Z,93045.67
2018-03-15T13:43:27.704Z,93047.95
2018-03-15T13:45:55.950Z,93039.87
2018-03-15T13:48:24.193Z,93033.34
2018-03-15T13:50:53.420Z,93029.34
2018-03-15T13:53:21.669Z,93030.28
2018-03-15T13:55:49.916Z,93017.59
2018-03-15T13:58:18.190Z,93018.42
2018-03-15T14:00:46.436Z,93012.45
2018-03-15T14:03:14.688Z,93011.81
2018-03-15T14:05:42.941Z,93011.98
2018-03-15T14:08:11.195Z,93016.71
2018-03-15T14:10:39.467Z,93009.60
2018-03-15T14:13:07.732Z,93002.19
2018-03-15T14:15:36.001Z,93001.27
2018-03-15T14:18:05.012Z,92997.35
2018-03-15T14:20:33.417Z,92996.45
2018-03-15T14:23:01.680Z,92984.77
2018-03-15T14:25:30.680Z,92988.75
2018-03-15T14:27:58.949Z,92986.81
2018-03-15T14:30:27.981Z,92982.13
2018-03-15T14:32:56.239Z,92980.21
2018-03-15T14:35:24.494Z,92981.72
2018-03-15T14:37:52.764Z,92979.34
2018-03-15T14:40:21.013Z,92981.54
2018-03-15T14:42:49.267Z,92982.38
2018-03-15T14:45:17.556Z,92986.90
2018-03-15T14:47:45.851Z,92986.27
2018-03-15T14:50:14.098Z,92990.76
2018-03-15T14:52:42.365Z,92988.53
2018-03-15T14:55:11.385Z,92991.53
2018-03-15T14:57:39.640Z,92990.52
2018-03-15T15:00:08.667Z,92992.52
2018-03-15T15:02:36.917Z,92987.83
2018-03-15T15:05:07.184Z,92983.13
2018-03-15T15:07:35.432Z,92988.48
2018-03-15T15:10:04.449Z,92986.10
2018-03-15T15:12:32.712Z,92991.27
2018-03-15T15:15:01.718Z,92996.45
2018-03-15T15:17:29.973Z,92993.72
2018-03-15T15:19:59.002Z,92995.27
2018-03-15T15:22:27.265Z,92991.13
2018-03-15T15:24:56.281Z,92986.00
2018-03-15T15:27:24.550Z,92993.08
2018-03-15T15:29:53.551Z,92995.47
2018-03-15T15:32:21.796Z,92991.58
2018-03-15T15:34:50.060Z,92993.34
2018-03-15T15:37:18.332Z,93000.71
2018-03-15T15:39:47.359Z,92997.45
2018-03-15T15:42:16.372Z,92999.17
2018-03-15T15:44:45.400Z,92998.91
2018-03-15T15:47:13.648Z,92995.38
2018-03-15T15:49:42.655Z,92985.55
2018-03-15T15:52:10.919Z,93001.50
2018-03-15T15:54:39.941Z,92999.85
2018-03-15T15:57:08.197Z,92998.15
2018-03-15T15:59:37.204Z,93001.45
2018-03-15T16:02:05.460Z,92993.08
2018-03-15T16:04:33.711Z,92992.88
2018-03-15T16:07:01.956Z,93001.58
2018-03-15T16:09:30.222Z,93003.64
2018-03-15T16:11:58.765Z,92998.32
2018-03-15T16:14:27.021Z,93001.98
2018-03-15T16:16:55.276Z,92993.45
2018-03-15T16:19:23.516Z,92997.55
2018-03-15T16:21:51.774Z,92995.23
2018-03-15T16:24:20.030Z,92991.27
2018-03-15T16:26:48.268Z,92984.00
2018-03-15T16:29:16.510Z,92986.17
2018-03-15T16:31:44.774Z,92989.66
2018-03-15T16:34:13.033Z,93001.16
2018-03-15T16:36:42.043Z,92993.45
2018-03-15T16:39:10.296Z,92997.51
2018-03-15T16:41:39.310Z,92993.10
2018-03-15T16:44:08.366Z,92989.70
2018-03-15T16:46:36.625Z,92987.41
2018-03-15T16:49:04.880Z,92986.92
2018-03-15T16:51:33.132Z,92987.30
2018-03-15T16:54:02.180Z,93003.19
2018-03-15T16:56:30.439Z,93000.20
2018-03-15T16:58:58.682Z,93007.00
2018-03-15T17:01:26.961Z,92997.27
2018-03-15T17:03:55.195Z,93000.46
2018-03-15T17:06:23.468Z,93005.86
2018-03-15T17:08:51.742Z,93011.87
2018-03-15T17:11:20.023Z,93009.27
2018-03-15T17:13:48.285Z,93010.91
2018-03-15T17:16:17.345Z,93008.30
2018-03-15T17:18:45.597Z,93010.06
2018-03-15T17:21:13.853Z,93007.34
2018-03-15T17:23:42.112Z,93008.77
2018-03-15T17:26:11.144Z,93012.06
2018-03-15T17:28:40.173Z,93004.55
2018-03-15T17:31:09.120Z,93005.62
2018-03-15T17:33:38.145Z,93000.59
2018-03-15T17:36:06.417Z,93003.22
2018-03-15T17:38:34.700Z,92994.14
2018-03-15T17:41:02.978Z,92993.11
2018-03-15T17:43:31.226Z,92994.25
2018-03-15T17:46:01.499Z,92995.60
2018-03-15T17:48:29.769Z,92989.09
2018-03-15T17:50:58.057Z,92984.77
2018-03-15T17:53:26.324Z,92982.67
2018-03-15T17:55:54.596Z,92968.36
2018-03-15T17:58:22.855Z,92968.46
2018-03-15T18:00:51.877Z,92966.80
2018-03-15T18:03:20.158Z,92972.72
2018-03-15T18:05:48.420Z,92976.02
2018-03-15T18:08:17.441Z,92987.35
2018-03-15T18:10:45.711Z,92998.00
2018-03-15T18:13:14.728Z,92992.34
2018-03-15T18:15:43.046Z,92983.30
2018-03-15T18:18:11.276Z,92988.52
2018-03-15T18:20:39.557Z,92993.84
2018-03-15T18:23:07.806Z,92988.54
2018-03-15T18:25:36.840Z,92993.84
2018-03-15T18:28:05.103Z,92982.79
2018-03-15T18:30:33.376Z,92988.53
2018-03-15T18:33:02.479Z,92989.10
2018-03-15T18:35:30.673Z,92994.00
2018-03-15T18:37:58.966Z,93001.84
2018-03-15T18:40:27.224Z,92999.37
2018-03-15T18:42:55.481Z,93004.22
2018-03-15T18:45:23.724Z,93012.36
2018-03-15T18:47:51.980Z,93005.06
2018-03-15T18:50:20.237Z,93006.70
2018-03-15T18:52:49.245Z,93010.22
2018-03-15T18:55:17.509Z,93006.92
2018-03-15T18:57:46.532Z,93010.34
2018-03-15T19:00:15.539Z,93006.33
2018-03-15T19:02:43.781Z,93000.52
2018-03-15T19:05:12.811Z,93002.73
2018-03-15T19:07:41.048Z,93002.22
2018-03-15T19:10:09.305Z,93007.64
2018-03-15T19:12:37.559Z,93007.55
2018-03-15T19:15:05.822Z,93005.34
2018-03-15T19:17:34.086Z,93009.25
2018-03-15T19:20:03.093Z,93015.17
2018-03-15T19:22:32.126Z,93009.77
2018-03-15T19:25:00.413Z,93015.66
2018-03-15T19:27:28.662Z,93012.55
2018-03-15T19:29:56.921Z,93007.92
2018-03-15T19:32:25.933Z,93007.86
2018-03-15T19:34:54.240Z,93014.95
2018-03-15T19:37:22.488Z,93010.05
2018-03-15T19:39:51.499Z,93017.55
2018-03-15T19:42:19.748Z,93015.64
2018-03-15T19:44:48.790Z,93012.73
2018-03-15T19:47:17.057Z,93015.58
2018-03-15T19:49:45.300Z,93016.66
2018-03-15T19:52:13.548Z,93027.23
2018-03-15T19:54:41.822Z,93035.42
2018-03-15T19:57:10.071Z,93037.84
2018-03-15T19:59:38.324Z,93033.22
2018-03-15T20:02:06.576Z,93037.51
2018-03-15T20:04:34.824Z,93047.91
2018-03-15T20:07:03.121Z,93054.12
2018-03-15T20:09:32.093Z,93046.91
2018-03-15T20:12:00.349Z,93062.62
2018-03-15T20:14:29.373Z,93069.04
2018-03-15T20:16:57.633Z,93071.94
2018-03-15T20:19:26.652Z,93073.69
2018-03-15T20:21:55.684Z,93092.50
2018-03-15T20:24:29.341Z,93113.42
2018-03-15T20:26:58.364Z,93127.89
2018-03-15T20:29:26.620Z,93128.80
2018-03-15T20:31:54.864Z,93134.34
2018-03-15T20:34:23.129Z,93151.19
2018-03-15T20:36:51.372Z,93150.69
2018-03-15T20:39:25.148Z,93154.67
2018-03-15T20:41:54.319Z,93160.78
2018-03-15T20:44:22.564Z,93161.06
2018-03-15T20:46:56.356Z,93167.59
2018-03-15T20:49:26.600Z,93173.15
2018-03-15T20:51:54.856Z,93176.37
2018-03-15T20:54:23.883Z,93181.34
2018-03-15T20:56:52.132Z,93181.14
2018-03-15T20:59:21.154Z,93180.59
2018-03-15T21:01:49.412Z,93181.66
2018-03-15T21:04:17.668Z,93188.05
2018-03-15T21:06:45.916Z,93183.69
2018-03-15T21:09:14.176Z,93194.94
2018-03-15T21:11:42.445Z,93193.02
2018-03-15T21:14:10.696Z,93203.42
2018-03-15T21:16:39.711Z,93209.33
2018-03-15T21:19:08.732Z,93215.15
2018-03-15T21:21:36.971Z,93220.40
2018-03-15T21:24:05.988Z,93219.77
2018-03-15T21:26:35.007Z,93225.86
2018-03-15T21:29:03.253Z,93222.12
2018-03-15T21:31:32.273Z,93224.77
2018-03-15T21:34:00.534Z,93228.98
2018-03-15T21:36:29.540Z,93230.95
2018-03-15T21:38:57.796Z,93231.16
2018-03-15T21:41:26.200Z,93235.25
2018-03-15T21:43:54.494Z,93247.21
2018-03-15T21:46:22.740Z,93248.28
2018-03-15T21:48:51.000Z,93249.94
2018-03-15T21:51:19.259Z,93254.30
2018-03-15T21:53:47.509Z,93259.73
2018-03-15T21:56:15.752Z,93255.34
2018-03-15T21:58:44.008Z,93270.25
2018-03-15T22:01:12.257Z,93271.55
2018-03-15T22:03:40.792Z,93278.52
2018-03-15T22:06:09.229Z,93283.00
2018-03-15T22:08:37.517Z,93283.95
2018-03-15T22:11:05.803Z,93289.88
2018-03-15T22:13:34.101Z,93287.69
2018-03-15T22:16:02.392Z,93288.82
2018-03-15T22:18:30.683Z,93292.93
2018-03-15T22:20:59.472Z,93294.88
2018-03-15T22:23:27.778Z,93298.71
2018-03-15T22:25:56.114Z,93295.02
2018-03-15T22:28:24.406Z,93289.38
2018-03-15T22:30:52.679Z,93289.78
2018-03-15T22:33:20.974Z,93294.72
2018-03-15T22:35:49.290Z,93296.76
2018-03-15T22:38:17.583Z,93298.31
2018-03-15T22:40:46.667Z,93296.34
2018-03-15T22:43:14.965Z,93301.16
2018-03-15T22:45:44.028Z,93311.42
2018-03-15T22:48:12.330Z,93313.06
2018-03-15T22:50:41.405Z,93310.32
2018-03-15T22:53:09.703Z,93313.41
2018-03-15T22:55:38.194Z,93324.35
2018-03-15T22:58:06.434Z,93323.33
2018-03-15T23:00:34.722Z,93317.31
2018-03-15T23:03:03.042Z,93327.65
2018-03-15T23:05:32.091Z,93326.27
2018-03-15T23:08:00.393Z,93334.18
2018-03-15T23:10:28.698Z,93335.48
2018-03-15T23:12:56.994Z,93343.27
2018-03-15T23:15:26.046Z,93337.55
2018-03-15T23:17:54.330Z,93346.50
2018-03-15T23:20:22.632Z,93346.78
2018-03-15T23:22:50.910Z,93351.66
2018-03-15T23:25:19.199Z,93359.28
2018-03-15T23:27:48.271Z,93368.89
2018-03-15T23:30:16.550Z,93371.93
2018-03-15T23:32:44.850Z,93366.49
2018-03-15T23:35:13.135Z,93365.16
2018-03-15T23:37:41.453Z,93368.89
2018-03-15T23:40:09.736Z,93366.58
2018-03-15T23:42:38.054Z,93362.16
2018-03-15T23:45:06.344Z,93363.73
2018-03-15T23:47:34.644Z,93364.44
2018-03-15T23:50:03.701Z,93370.62
2018-03-15T23:52:31.980Z,93370.59
2018-03-15T23:55:00.264Z,93376.03
2018-03-15T23:57:28.566Z,93386.70
2018-03-15T23:59:56.865Z,93390.22
